createdAt,value
2023-05-07T00:01:37.971Z,5.80
2023-05-07T00:04:04.860Z,6.45
2023-05-07T00:06:31.593Z,6.15
2023-05-07T00:08:58.759Z,6.22
2023-05-07T00:14:00.793Z,6.18
2023-05-07T00:16:27.426Z,5.95
2023-05-07T00:18:54.938Z,5.75
2023-05-07T00:21:22.554Z,6.18
2023-05-07T00:23:49.356Z,5.60
2023-05-07T00:26:37.804Z,5.47
2023-05-07T00:29:04.381Z,5.45
2023-05-07T00:31:30.987Z,5.60
2023-05-07T00:33:57.592Z,5.50
2023-05-07T00:37:27.065Z,5.18
2023-05-07T00:42:50.065Z,5.18
2023-05-07T00:45:18.051Z,5.55
2023-05-07T00:47:45.070Z,5.00
2023-05-07T00:50:13.783Z,5.28
2023-05-07T00:52:40.928Z,4.93
2023-05-07T00:58:03.252Z,5.30
2023-05-07T01:00:29.895Z,4.72
2023-05-07T01:02:56.686Z,4.70
2023-05-07T01:05:25.427Z,4.45
2023-05-07T01:14:09.928Z,4.47
2023-05-07T01:16:37.695Z,4.62
2023-05-07T01:19:04.665Z,4.82
2023-05-07T01:21:35.455Z,4.53
2023-05-07T01:24:02.131Z,4.20
2023-05-07T01:29:03.925Z,4.78
2023-05-07T01:31:30.915Z,4.82
2023-05-07T01:34:00.507Z,4.65
2023-05-07T01:42:45.047Z,4.53
2023-05-07T01:45:12.399Z,4.25
2023-05-07T01:47:40.472Z,4.53
2023-05-07T01:50:09.726Z,5.05
2023-05-07T01:52:39.171Z,5.05
2023-05-07T01:57:41.152Z,5.07
2023-05-07T02:00:09.765Z,5.60
2023-05-07T02:02:37.182Z,5.78
2023-05-07T02:05:51.101Z,6.30
2023-05-07T02:11:29.350Z,6.37
2023-05-07T02:13:56.126Z,7.18
2023-05-07T02:16:24.211Z,7.25
2023-05-07T02:18:50.899Z,7.03
2023-05-07T02:21:17.586Z,6.53
2023-05-07T02:23:44.224Z,6.97
2023-05-07T02:26:26.953Z,6.72
2023-05-07T02:28:54.737Z,7.05
2023-05-07T02:31:21.321Z,6.75
2023-05-07T02:33:47.910Z,6.50
2023-05-07T02:36:52.569Z,6.72
2023-05-07T02:41:54.396Z,7.15
2023-05-07T02:44:20.959Z,6.47
2023-05-07T02:46:47.490Z,7.07
2023-05-07T02:49:14.094Z,7.03
2023-05-07T02:51:40.791Z,6.28
2023-05-07T02:56:42.586Z,6.35
2023-05-07T02:59:09.110Z,6.40
2023-05-07T03:01:35.794Z,6.72
2023-05-07T03:04:02.708Z,6.82
2023-05-07T03:06:29.350Z,7.32
2023-05-07T03:09:20.730Z,7.32
2023-05-07T03:12:37.770Z,6.93
2023-05-07T03:15:26.222Z,6.30
2023-05-07T03:17:52.826Z,5.82
2023-05-07T03:20:19.546Z,5.70
2023-05-07T03:22:46.271Z,5.12
2023-05-07T03:27:48.146Z,5.15
2023-05-07T03:30:14.924Z,4.90
2023-05-07T03:32:41.887Z,4.60
2023-05-07T03:35:08.719Z,5.20
2023-05-07T03:37:35.333Z,4.90
2023-05-07T03:42:37.384Z,4.95
2023-05-07T03:45:04.344Z,5.03
2023-05-07T03:47:31.389Z,4.80
2023-05-07T03:53:49.843Z,4.78
2023-05-07T03:56:17.842Z,4.22
2023-05-07T03:58:46.565Z,4.53
2023-05-07T04:01:13.173Z,4.75
2023-05-07T04:03:39.776Z,4.12
2023-05-07T04:06:06.931Z,4.82
2023-05-07T04:16:41.998Z,5.03
2023-05-07T04:26:04.948Z,4.80
2023-05-07T04:28:31.563Z,5.53
2023-05-07T04:30:58.636Z,5.35
2023-05-07T04:33:25.349Z,5.60
2023-05-07T04:35:51.925Z,5.30
2023-05-07T04:38:42.705Z,5.47
2023-05-07T04:41:10.524Z,5.45
2023-05-07T04:43:37.116Z,5.35
2023-05-07T04:46:03.719Z,5.45
2023-05-07T05:25:09.047Z,3.95
2023-05-07T05:27:36.816Z,4.45
2023-05-07T05:30:04.518Z,3.95
2023-05-07T05:32:31.179Z,4.50
2023-05-07T05:34:57.776Z,4.03
2023-05-07T05:37:24.465Z,4.15
2023-05-07T06:06:35.943Z,3.70
2023-05-07T06:09:02.538Z,3.20
2023-05-07T06:11:29.090Z,3.25
2023-05-07T06:13:55.624Z,3.95
2023-05-07T06:16:22.235Z,3.17
2023-05-07T06:18:48.806Z,3.70
2023-05-07T06:21:16.292Z,3.25
2023-05-07T06:24:01.734Z,3.10
2023-05-07T06:26:28.260Z,3.10
2023-05-07T06:28:54.798Z,3.45
2023-05-07T06:31:21.659Z,3.12
2023-05-07T06:34:37.144Z,2.92
2023-05-07T06:37:32.202Z,3.08
2023-05-07T06:40:07.599Z,2.60
2023-05-07T06:42:34.195Z,2.42
2023-05-07T06:45:00.809Z,3.10
2023-05-07T06:47:30.382Z,3.50
2023-05-07T06:49:57.335Z,4.37
2023-05-07T06:52:46.441Z,3.40
2023-05-07T06:55:14.040Z,3.62
2023-05-07T06:57:40.987Z,3.30
2023-05-07T07:00:21.151Z,3.58
2023-05-07T07:02:47.750Z,3.85
2023-05-07T07:05:14.634Z,4.15
2023-05-07T07:07:41.732Z,3.80
2023-05-07T07:10:09.051Z,3.03
2023-05-07T07:12:49.595Z,2.65
2023-05-07T09:05:41.397Z,5.65
2023-05-07T09:08:09.073Z,5.78
2023-05-07T09:10:35.701Z,5.60
2023-05-07T09:13:04.016Z,4.97
2023-05-07T09:15:33.506Z,5.30
2023-05-07T10:08:09.799Z,1.92
2023-05-07T10:10:45.087Z,2.62
2023-05-07T10:33:38.734Z,3.60
2023-05-07T10:36:17.657Z,4.35
2023-05-07T10:38:44.770Z,4.30
2023-05-07T10:41:12.338Z,4.70
2023-05-07T10:44:02.436Z,4.35
2023-05-07T10:46:29.316Z,4.35
2023-05-07T10:49:01.804Z,4.10
2023-05-07T10:51:29.305Z,4.00
2023-05-07T10:54:11.322Z,3.87
2023-05-07T10:56:47.083Z,3.80
2023-05-07T10:59:28.138Z,3.10
2023-05-07T11:02:00.256Z,2.55
2023-05-07T11:04:32.462Z,3.10
2023-05-07T11:07:11.223Z,3.10
2023-05-07T11:09:56.979Z,2.53
2023-05-07T11:12:39.163Z,2.70
2023-05-07T11:15:10.926Z,2.50
2023-05-07T11:17:58.987Z,2.30
2023-05-07T11:20:58.121Z,2.50
2023-05-07T11:23:38.311Z,2.67
2023-05-07T11:26:09.565Z,2.45
2023-05-07T11:28:42.986Z,2.30
2023-05-07T11:31:11.063Z,2.58
2023-05-07T11:33:39.169Z,2.53
2023-05-07T11:36:08.792Z,3.05
2023-05-07T11:38:39.705Z,2.50
2023-05-07T11:41:06.505Z,2.45
2023-05-07T11:43:34.085Z,2.47
2023-05-07T11:46:10.190Z,2.40
2023-05-07T11:48:42.536Z,2.35
2023-05-07T11:51:16.184Z,2.28
2023-05-07T11:53:44.441Z,2.28
2023-05-07T11:56:16.318Z,2.50
2023-05-07T11:59:13.781Z,2.20
2023-05-07T12:25:00.622Z,2.20
2023-05-07T12:27:27.562Z,1.90
2023-05-07T12:29:54.202Z,2.33
2023-05-07T12:42:08.693Z,2.15
2023-05-07T12:44:36.149Z,2.12
2023-05-07T12:47:03.833Z,2.25
2023-05-07T12:49:30.797Z,2.00
2023-05-07T12:54:34.344Z,2.62
2023-05-07T12:57:10.842Z,2.15
2023-05-07T12:59:39.305Z,2.00
2023-05-07T13:02:06.431Z,2.12
2023-05-07T13:04:33.697Z,2.50
2023-05-07T13:07:01.264Z,1.90
2023-05-07T13:09:29.642Z,2.00
2023-05-07T13:11:56.408Z,1.80
2023-05-07T13:14:23.075Z,2.08
2023-05-07T13:16:50.343Z,2.10
2023-05-07T13:19:17.187Z,2.08
2023-05-07T13:21:43.750Z,2.00
2023-05-07T13:24:10.435Z,1.80
2023-05-07T13:26:37.198Z,2.15
2023-05-07T13:29:03.810Z,2.00
2023-05-07T13:31:31.073Z,1.70
2023-05-07T13:33:57.735Z,1.70
2023-05-07T13:41:34.813Z,2.22
2023-05-07T13:44:01.443Z,2.60
2023-05-07T13:46:28.342Z,2.22
2023-05-07T13:49:24.060Z,2.17
2023-05-07T13:54:40.437Z,2.30
2023-05-07T13:57:07.084Z,2.20
2023-05-07T13:59:36.602Z,2.00
2023-05-07T14:02:03.206Z,2.40
2023-05-07T14:04:32.149Z,2.30
2023-05-07T14:06:58.702Z,2.90
2023-05-07T14:09:25.276Z,2.42
2023-05-07T14:11:52.437Z,2.53
2023-05-07T14:14:19.732Z,2.90
2023-05-07T14:16:48.415Z,2.30
2023-05-07T14:19:16.063Z,2.60
2023-05-07T14:45:17.216Z,2.55
2023-05-07T14:47:43.922Z,2.60
2023-05-07T14:50:11.782Z,2.78
2023-05-07T14:52:38.361Z,2.47
2023-05-07T14:55:05.746Z,2.60
2023-05-07T14:57:35.795Z,2.75
2023-05-07T15:00:14.346Z,3.17
2023-05-07T15:02:41.062Z,2.65
2023-05-07T15:05:15.410Z,2.70
2023-05-07T15:07:47.388Z,2.85
2023-05-07T15:15:24.827Z,3.20
2023-05-07T15:17:51.501Z,3.20
2023-05-07T15:20:18.729Z,2.97
2023-05-07T15:28:02.149Z,3.08
2023-05-07T15:30:29.744Z,3.25
2023-05-07T15:32:56.736Z,3.47
2023-05-07T15:35:23.550Z,3.10
2023-05-07T15:37:50.942Z,3.03
2023-05-07T15:40:38.757Z,3.20
2023-05-07T15:43:05.290Z,3.22
2023-05-07T15:45:32.027Z,3.17
2023-05-07T15:47:59.227Z,3.17
2023-05-07T15:50:26.255Z,3.05
2023-05-07T15:56:56.465Z,2.50
2023-05-07T15:59:27.526Z,2.47
2023-05-07T16:02:17.344Z,2.60
2023-05-07T16:04:45.009Z,2.40
2023-05-07T16:10:00.521Z,2.20
2023-05-07T16:12:29.974Z,2.03
2023-05-07T16:14:56.595Z,1.73
2023-05-07T16:17:32.694Z,1.90
2023-05-07T16:20:19.783Z,1.70
2023-05-07T16:22:48.138Z,1.80
2023-05-07T16:25:15.074Z,1.70
2023-05-07T16:32:58.440Z,1.62
2023-05-07T16:35:25.128Z,1.45
2023-05-07T16:37:54.882Z,1.48
2023-05-07T16:40:25.242Z,1.48
2023-05-07T16:43:00.483Z,1.50
2023-05-07T16:45:27.086Z,1.50
2023-05-07T16:47:54.679Z,1.40
2023-05-07T16:50:21.279Z,1.52
2023-05-07T16:52:53.423Z,1.60
2023-05-07T16:55:20.282Z,1.60
2023-05-07T16:57:46.899Z,1.73
2023-05-07T17:00:14.376Z,1.40
2023-05-07T17:02:41.124Z,1.60
2023-05-07T17:05:10.086Z,1.30
2023-05-07T17:07:38.042Z,1.40
2023-05-07T17:10:05.469Z,1.50
2023-05-07T17:12:32.073Z,1.40
2023-05-07T17:15:12.393Z,1.40
2023-05-07T17:17:40.951Z,2.10
2023-05-07T17:20:09.333Z,1.90
2023-05-07T17:22:36.024Z,1.80
2023-05-07T17:25:04.248Z,1.48
2023-05-07T17:27:37.034Z,1.73
2023-05-07T17:32:30.452Z,2.33
2023-05-07T17:34:59.070Z,1.83
2023-05-07T17:37:26.155Z,1.60
2023-05-07T17:42:28.221Z,1.60
2023-05-07T17:44:55.899Z,1.65
2023-05-07T17:47:23.965Z,1.60
2023-05-07T17:49:50.557Z,1.70
2023-05-07T17:52:17.165Z,1.45
2023-05-07T18:02:51.910Z,1.40
2023-05-07T18:05:18.663Z,1.70
2023-05-07T18:07:45.588Z,1.50
2023-05-07T18:10:12.345Z,1.60
2023-05-07T18:12:40.383Z,1.55
2023-05-07T18:15:07.544Z,1.80
2023-05-07T18:17:34.158Z,1.40
2023-05-07T18:20:00.825Z,1.80
2023-05-07T18:22:27.765Z,1.62
2023-05-07T18:24:55.974Z,1.70
2023-05-07T18:27:22.605Z,1.70
2023-05-07T18:29:49.205Z,1.90
2023-05-07T18:32:16.546Z,2.28
2023-05-07T18:34:43.354Z,2.05
2023-05-07T18:37:09.946Z,2.08
2023-05-07T18:39:36.592Z,3.25
2023-05-07T18:42:05.262Z,2.97
2023-05-07T18:44:32.261Z,2.47
2023-05-07T18:47:06.059Z,2.78
2023-05-07T18:49:36.152Z,2.30
2023-05-07T18:52:05.490Z,2.50
2023-05-07T18:54:32.162Z,2.53
2023-05-07T18:56:58.898Z,2.50
2023-05-07T18:59:25.521Z,2.40
2023-05-07T19:01:52.144Z,2.33
2023-05-07T19:04:18.933Z,2.40
2023-05-07T19:06:46.028Z,2.10
2023-05-07T19:09:12.738Z,2.00
2023-05-07T19:11:39.306Z,2.45
2023-05-07T19:14:06.570Z,2.90
2023-05-07T19:16:33.376Z,2.87
2023-05-07T19:19:00.195Z,3.00
2023-05-07T19:21:28.578Z,3.28
2023-05-07T19:23:57.403Z,3.95
2023-05-07T19:26:24.292Z,3.90
2023-05-07T19:29:06.707Z,4.37
2023-05-07T19:31:38.517Z,4.78
2023-05-07T19:34:05.218Z,4.32
2023-05-07T19:36:34.338Z,4.95
2023-05-07T19:39:01.367Z,4.80
2023-05-07T19:41:28.678Z,4.28
2023-05-07T19:43:55.413Z,4.90
2023-05-07T19:46:22.146Z,4.93
2023-05-07T19:48:49.468Z,4.78
2023-05-07T19:51:16.128Z,4.85
2023-05-07T19:53:42.743Z,4.90
2023-05-07T19:56:10.717Z,4.32
2023-05-07T19:58:38.673Z,4.60
2023-05-07T20:01:06.380Z,4.47
2023-05-07T20:03:34.167Z,4.20
2023-05-07T20:06:01.351Z,3.95
2023-05-07T20:08:28.580Z,3.50
2023-05-07T20:10:57.703Z,3.40
2023-05-07T20:13:24.401Z,3.80
2023-05-07T20:15:51.039Z,3.55
2023-05-07T20:18:17.696Z,3.03
2023-05-07T20:20:45.413Z,3.47
2023-05-07T20:23:12.106Z,2.97
2023-05-07T20:25:41.408Z,2.72
2023-05-07T20:28:08.019Z,2.65
2023-05-07T20:30:34.804Z,2.58
2023-05-07T20:33:01.475Z,2.75
2023-05-07T20:35:28.138Z,2.65
2023-05-07T20:37:54.660Z,3.10
2023-05-07T20:40:21.388Z,2.72
2023-05-07T20:42:47.898Z,2.67
2023-05-07T20:45:14.555Z,2.40
2023-05-07T20:47:41.373Z,2.30
2023-05-07T20:50:08.229Z,2.62
2023-05-07T20:52:35.747Z,2.40
2023-05-07T20:55:02.396Z,2.55
2023-05-07T20:57:28.937Z,2.33
2023-05-07T20:59:55.510Z,2.72
2023-05-07T21:02:22.146Z,2.78
2023-05-07T21:04:51.430Z,2.30
2023-05-07T21:07:18.456Z,2.53
2023-05-07T21:09:45.052Z,2.45
2023-05-07T21:12:11.664Z,2.70
2023-05-07T21:14:39.402Z,2.62
2023-05-07T21:17:07.207Z,2.35
2023-05-07T21:19:34.076Z,2.10
2023-05-07T21:22:01.044Z,2.47
2023-05-07T21:24:27.682Z,2.40
2023-05-07T21:26:56.166Z,2.50
2023-05-07T21:33:06.922Z,2.55
2023-05-07T21:40:59.088Z,2.62
2023-05-07T21:51:52.268Z,2.78
2023-05-07T21:54:18.887Z,2.60
2023-05-07T21:56:49.991Z,3.10
2023-05-07T21:59:16.824Z,3.17
2023-05-07T22:01:43.405Z,3.25
2023-05-07T22:06:45.412Z,2.92
2023-05-07T22:09:12.389Z,2.78
2023-05-07T22:11:39.064Z,3.35
2023-05-07T22:14:27.626Z,3.05
2023-05-07T22:19:54.448Z,3.30
2023-05-07T22:22:51.216Z,3.12
2023-05-07T22:25:19.263Z,3.20
2023-05-07T22:27:45.986Z,2.80
2023-05-07T22:30:13.122Z,3.40
2023-05-07T22:32:42.177Z,3.08
2023-05-07T22:35:24.929Z,2.80
2023-05-07T22:37:51.466Z,2.83
2023-05-07T22:42:59.034Z,3.12
2023-05-07T22:49:12.350Z,3.10
2023-05-07T23:21:37.567Z,3.60
2023-05-07T23:26:39.429Z,3.45
2023-05-07T23:29:06.182Z,3.45
2023-05-07T23:31:32.844Z,3.55
2023-05-07T23:34:23.797Z,3.58
2023-05-07T23:36:51.337Z,4.28
2023-05-07T23:39:18.936Z,3.22
2023-05-07T23:41:46.075Z,4.00
2023-05-07T23:45:13.997Z,3.75
2023-05-07T23:48:00.647Z,3.70
2023-05-07T23:53:02.545Z,3.62
2023-05-07T23:55:29.148Z,3.47
2023-05-07T23:57:55.793Z,4.03
